sensor_id;sensor_type;location;lat;lon;timestamp;temperature;humidity
5278;DHT22;2662;51.194;6.614;2022-07-10T00:00:06;15.90;99.90
5278;DHT22;2662;51.194;6.614;2022-07-10T00:02:35;15.90;99.90
5278;DHT22;2662;51.194;6.614;2022-07-10T00:05:02;16.00;99.90
5278;DHT22;2662;51.194;6.614;2022-07-10T00:07:29;16.10;99.90
5278;DHT22;2662;51.194;6.614;2022-07-10T00:09:56;16.10;99.90
5278;DHT22;2662;51.194;6.614;2022-07-10T00:12:22;16.30;99.90
5278;DHT22;2662;51.194;6.614;2022-07-10T00:14:49;16.20;99.90
5278;DHT22;2662;51.194;6.614;2022-07-10T00:17:16;16.10;99.90
5278;DHT22;2662;51.194;6.614;2022-07-10T00:19:44;16.10;99.90
5278;DHT22;2662;51.194;6.614;2022-07-10T00:22:11;16.10;99.90
5278;DHT22;2662;51.194;6.614;2022-07-10T00:24:38;16.10;99.90
5278;DHT22;2662;51.194;6.614;2022-07-10T00:27:05;16.10;99.90
5278;DHT22;2662;51.194;6.614;2022-07-10T00:29:32;16.10;99.90
5278;DHT22;2662;51.194;6.614;2022-07-10T00:31:58;16.10;99.90
5278;DHT22;2662;51.194;6.614;2022-07-10T00:34:25;16.10;99.90
5278;DHT22;2662;51.194;6.614;2022-07-10T00:36:53;16.10;99.90
5278;DHT22;2662;51.194;6.614;2022-07-10T00:39:20;16.10;99.90
5278;DHT22;2662;51.194;6.614;2022-07-10T00:41:47;16.10;99.90
5278;DHT22;2662;51.194;6.614;2022-07-10T00:44:14;16.10;99.90
5278;DHT22;2662;51.194;6.614;2022-07-10T00:46:40;16.20;99.90
5278;DHT22;2662;51.194;6.614;2022-07-10T00:49:07;16.20;99.90
5278;DHT22;2662;51.194;6.614;2022-07-10T00:51:34;16.20;99.90
5278;DHT22;2662;51.194;6.614;2022-07-10T00:54:04;16.20;99.90
5278;DHT22;2662;51.194;6.614;2022-07-10T00:56:32;16.20;99.90
5278;DHT22;2662;51.194;6.614;2022-07-10T00:58:58;16.20;99.90
5278;DHT22;2662;51.194;6.614;2022-07-10T01:01:25;16.10;99.90
5278;DHT22;2662;51.194;6.614;2022-07-10T01:03:52;16.10;99.90
5278;DHT22;2662;51.194;6.614;2022-07-10T01:06:19;16.20;99.90
5278;DHT22;2662;51.194;6.614;2022-07-10T01:08:46;16.20;99.90
5278;DHT22;2662;51.194;6.614;2022-07-10T01:11:14;16.10;99.90
5278;DHT22;2662;51.194;6.614;2022-07-10T01:13:42;16.10;99.90
5278;DHT22;2662;51.194;6.614;2022-07-10T01:16:10;16.10;99.90
5278;DHT22;2662;51.194;6.614;2022-07-10T01:18:37;16.00;99.90
5278;DHT22;2662;51.194;6.614;2022-07-10T01:21:05;16.00;99.90
5278;DHT22;2662;51.194;6.614;2022-07-10T01:23:32;16.10;99.90
5278;DHT22;2662;51.194;6.614;2022-07-10T01:25:59;16.10;99.90
5278;DHT22;2662;51.194;6.614;2022-07-10T01:28:29;16.10;99.90
5278;DHT22;2662;51.194;6.614;2022-07-10T01:30:56;16.10;99.90
5278;DHT22;2662;51.194;6.614;2022-07-10T01:33:23;16.00;99.90
5278;DHT22;2662;51.194;6.614;2022-07-10T01:35:50;16.00;99.90
5278;DHT22;2662;51.194;6.614;2022-07-10T01:38:18;16.00;99.90
5278;DHT22;2662;51.194;6.614;2022-07-10T01:40:45;16.10;99.90
5278;DHT22;2662;51.194;6.614;2022-07-10T01:43:11;16.10;99.90
5278;DHT22;2662;51.194;6.614;2022-07-10T01:45:38;16.20;99.90
5278;DHT22;2662;51.194;6.614;2022-07-10T01:48:05;16.10;99.90
5278;DHT22;2662;51.194;6.614;2022-07-10T01:50:32;16.20;99.90
5278;DHT22;2662;51.194;6.614;2022-07-10T01:52:59;16.20;99.90
5278;DHT22;2662;51.194;6.614;2022-07-10T01:55:28;16.20;99.90
5278;DHT22;2662;51.194;6.614;2022-07-10T01:57:54;16.10;99.90
5278;DHT22;2662;51.194;6.614;2022-07-10T02:00:21;16.00;99.90
5278;DHT22;2662;51.194;6.614;2022-07-10T02:02:49;15.90;99.90
5278;DHT22;2662;51.194;6.614;2022-07-10T02:05:30;15.90;99.90
5278;DHT22;2662;51.194;6.614;2022-07-10T02:07:57;15.90;99.90
5278;DHT22;2662;51.194;6.614;2022-07-10T02:10:25;15.80;99.90
5278;DHT22;2662;51.194;6.614;2022-07-10T02:12:53;15.70;99.90
5278;DHT22;2662;51.194;6.614;2022-07-10T02:15:19;15.60;99.90
5278;DHT22;2662;51.194;6.614;2022-07-10T02:17:46;15.60;99.90
5278;DHT22;2662;51.194;6.614;2022-07-10T02:20:13;15.50;99.90
5278;DHT22;2662;51.194;6.614;2022-07-10T02:22:40;15.50;99.90
5278;DHT22;2662;51.194;6.614;2022-07-10T02:25:09;15.40;99.90
5278;DHT22;2662;51.194;6.614;2022-07-10T02:27:36;15.30;99.90
5278;DHT22;2662;51.194;6.614;2022-07-10T02:30:05;15.20;99.90
5278;DHT22;2662;51.194;6.614;2022-07-10T02:32:32;15.20;99.90
5278;DHT22;2662;51.194;6.614;2022-07-10T02:34:59;15.20;99.90
5278;DHT22;2662;51.194;6.614;2022-07-10T02:37:25;15.30;99.90
5278;DHT22;2662;51.194;6.614;2022-07-10T02:39:52;15.30;99.90
5278;DHT22;2662;51.194;6.614;2022-07-10T02:42:19;15.20;99.90
5278;DHT22;2662;51.194;6.614;2022-07-10T02:44:46;15.30;99.90
5278;DHT22;2662;51.194;6.614;2022-07-10T02:47:14;15.30;99.90
5278;DHT22;2662;51.194;6.614;2022-07-10T02:49:40;15.40;99.90
5278;DHT22;2662;51.194;6.614;2022-07-10T02:52:07;15.50;99.90
5278;DHT22;2662;51.194;6.614;2022-07-10T02:54:34;15.50;99.90
5278;DHT22;2662;51.194;6.614;2022-07-10T02:57:01;15.60;99.90
5278;DHT22;2662;51.194;6.614;2022-07-10T02:59:28;15.60;99.90
5278;DHT22;2662;51.194;6.614;2022-07-10T03:01:54;15.60;99.90
5278;DHT22;2662;51.194;6.614;2022-07-10T03:04:22;15.60;99.90
5278;DHT22;2662;51.194;6.614;2022-07-10T03:06:49;15.70;99.90
5278;DHT22;2662;51.194;6.614;2022-07-10T03:09:16;15.60;99.90
5278;DHT22;2662;51.194;6.614;2022-07-10T03:11:43;15.70;99.90
5278;DHT22;2662;51.194;6.614;2022-07-10T03:14:10;15.60;99.90
5278;DHT22;2662;51.194;6.614;2022-07-10T03:16:37;15.60;99.90
5278;DHT22;2662;51.194;6.614;2022-07-10T03:19:03;15.60;99.90
5278;DHT22;2662;51.194;6.614;2022-07-10T03:21:31;15.60;99.90
5278;DHT22;2662;51.194;6.614;2022-07-10T03:23:58;15.50;99.90
5278;DHT22;2662;51.194;6.614;2022-07-10T03:26:25;15.50;99.90
5278;DHT22;2662;51.194;6.614;2022-07-10T03:28:54;15.50;99.90
5278;DHT22;2662;51.194;6.614;2022-07-10T03:31:21;15.50;99.90
5278;DHT22;2662;51.194;6.614;2022-07-10T03:33:48;15.40;99.90
5278;DHT22;2662;51.194;6.614;2022-07-10T03:36:15;15.40;99.90
5278;DHT22;2662;51.194;6.614;2022-07-10T03:38:43;15.30;99.90
5278;DHT22;2662;51.194;6.614;2022-07-10T03:41:12;15.30;99.90
5278;DHT22;2662;51.194;6.614;2022-07-10T03:43:38;15.30;99.90
5278;DHT22;2662;51.194;6.614;2022-07-10T03:46:05;15.20;99.90
5278;DHT22;2662;51.194;6.614;2022-07-10T03:48:32;15.10;99.90
5278;DHT22;2662;51.194;6.614;2022-07-10T03:50:59;15.10;99.90
5278;DHT22;2662;51.194;6.614;2022-07-10T03:53:25;15.10;99.90
5278;DHT22;2662;51.194;6.614;2022-07-10T03:55:54;15.10;99.90
5278;DHT22;2662;51.194;6.614;2022-07-10T03:58:20;15.10;99.90
5278;DHT22;2662;51.194;6.614;2022-07-10T04:00:46;15.10;99.90
5278;DHT22;2662;51.194;6.614;2022-07-10T04:03:13;15.10;99.90
5278;DHT22;2662;51.194;6.614;2022-07-10T04:05:40;15.00;99.90
5278;DHT22;2662;51.194;6.614;2022-07-10T04:08:07;15.10;99.90
5278;DHT22;2662;51.194;6.614;2022-07-10T04:10:34;15.10;99.90
5278;DHT22;2662;51.194;6.614;2022-07-10T04:13:02;15.20;99.90
5278;DHT22;2662;51.194;6.614;2022-07-10T04:15:29;15.30;99.90
5278;DHT22;2662;51.194;6.614;2022-07-10T04:17:56;15.30;99.90
5278;DHT22;2662;51.194;6.614;2022-07-10T04:20:23;15.30;99.90
5278;DHT22;2662;51.194;6.614;2022-07-10T04:22:50;15.40;99.90
5278;DHT22;2662;51.194;6.614;2022-07-10T04:25:17;15.60;99.90
5278;DHT22;2662;51.194;6.614;2022-07-10T04:27:44;15.80;99.90
5278;DHT22;2662;51.194;6.614;2022-07-10T04:30:12;15.90;99.90
5278;DHT22;2662;51.194;6.614;2022-07-10T04:32:39;16.10;99.90
5278;DHT22;2662;51.194;6.614;2022-07-10T04:35:06;16.20;99.90
5278;DHT22;2662;51.194;6.614;2022-07-10T04:37:33;16.30;99.90
5278;DHT22;2662;51.194;6.614;2022-07-10T04:40:00;16.40;99.90
5278;DHT22;2662;51.194;6.614;2022-07-10T04:42:28;16.50;99.90
5278;DHT22;2662;51.194;6.614;2022-07-10T04:44:54;16.70;99.90
5278;DHT22;2662;51.194;6.614;2022-07-10T04:47:23;16.70;99.90
5278;DHT22;2662;51.194;6.614;2022-07-10T04:49:49;16.80;99.90
5278;DHT22;2662;51.194;6.614;2022-07-10T04:52:16;17.00;99.90
5278;DHT22;2662;51.194;6.614;2022-07-10T04:54:43;17.20;99.90
5278;DHT22;2662;51.194;6.614;2022-07-10T04:57:09;17.30;99.90
5278;DHT22;2662;51.194;6.614;2022-07-10T04:59:36;17.30;99.90
5278;DHT22;2662;51.194;6.614;2022-07-10T05:02:03;17.30;99.90
5278;DHT22;2662;51.194;6.614;2022-07-10T05:04:32;17.40;99.90
5278;DHT22;2662;51.194;6.614;2022-07-10T05:06:58;17.40;99.90
5278;DHT22;2662;51.194;6.614;2022-07-10T05:09:25;17.40;99.90
5278;DHT22;2662;51.194;6.614;2022-07-10T05:11:52;17.40;99.90
5278;DHT22;2662;51.194;6.614;2022-07-10T05:14:19;17.20;99.90
5278;DHT22;2662;51.194;6.614;2022-07-10T05:16:45;17.10;99.90
5278;DHT22;2662;51.194;6.614;2022-07-10T05:19:12;17.30;99.90
5278;DHT22;2662;51.194;6.614;2022-07-10T05:21:40;17.40;99.90
5278;DHT22;2662;51.194;6.614;2022-07-10T05:24:07;17.50;99.90
5278;DHT22;2662;51.194;6.614;2022-07-10T05:26:34;17.50;99.90
5278;DHT22;2662;51.194;6.614;2022-07-10T05:29:01;17.50;99.90
5278;DHT22;2662;51.194;6.614;2022-07-10T05:31:28;17.60;99.90
5278;DHT22;2662;51.194;6.614;2022-07-10T05:33:55;17.60;99.90
5278;DHT22;2662;51.194;6.614;2022-07-10T05:36:22;17.70;99.90
5278;DHT22;2662;51.194;6.614;2022-07-10T05:38:50;17.60;99.90
5278;DHT22;2662;51.194;6.614;2022-07-10T05:41:17;17.70;99.90
5278;DHT22;2662;51.194;6.614;2022-07-10T05:43:43;18.00;99.90
5278;DHT22;2662;51.194;6.614;2022-07-10T05:46:10;18.40;99.90
5278;DHT22;2662;51.194;6.614;2022-07-10T05:48:37;19.00;99.90
5278;DHT22;2662;51.194;6.614;2022-07-10T05:51:04;19.60;99.90
5278;DHT22;2662;51.194;6.614;2022-07-10T05:53:31;20.90;99.90
5278;DHT22;2662;51.194;6.614;2022-07-10T05:56:01;22.90;99.90
5278;DHT22;2662;51.194;6.614;2022-07-10T05:58:27;22.80;99.90
5278;DHT22;2662;51.194;6.614;2022-07-10T06:00:54;21.80;99.90
5278;DHT22;2662;51.194;6.614;2022-07-10T06:03:21;21.10;99.90
5278;DHT22;2662;51.194;6.614;2022-07-10T06:05:48;20.60;99.90
5278;DHT22;2662;51.194;6.614;2022-07-10T06:08:15;19.90;99.90
5278;DHT22;2662;51.194;6.614;2022-07-10T06:10:41;19.40;99.90
5278;DHT22;2662;51.194;6.614;2022-07-10T06:13:11;19.00;99.90
5278;DHT22;2662;51.194;6.614;2022-07-10T06:15:38;18.90;99.90
5278;DHT22;2662;51.194;6.614;2022-07-10T06:18:05;18.80;99.90
5278;DHT22;2662;51.194;6.614;2022-07-10T06:20:31;18.80;99.90
5278;DHT22;2662;51.194;6.614;2022-07-10T06:22:58;18.70;99.90
5278;DHT22;2662;51.194;6.614;2022-07-10T06:25:25;18.60;99.90
5278;DHT22;2662;51.194;6.614;2022-07-10T06:27:52;18.60;99.90
5278;DHT22;2662;51.194;6.614;2022-07-10T06:30:20;18.60;99.90
5278;DHT22;2662;51.194;6.614;2022-07-10T06:32:47;18.50;99.90
5278;DHT22;2662;51.194;6.614;2022-07-10T06:35:13;18.40;99.90
5278;DHT22;2662;51.194;6.614;2022-07-10T06:37:40;18.20;99.90
5278;DHT22;2662;51.194;6.614;2022-07-10T06:40:11;18.20;99.90
5278;DHT22;2662;51.194;6.614;2022-07-10T06:42:38;18.30;99.90
5278;DHT22;2662;51.194;6.614;2022-07-10T06:45:06;18.30;99.90
5278;DHT22;2662;51.194;6.614;2022-07-10T06:47:34;18.40;99.90
5278;DHT22;2662;51.194;6.614;2022-07-10T06:50:19;18.50;99.90
5278;DHT22;2662;51.194;6.614;2022-07-10T06:52:47;18.50;99.90
5278;DHT22;2662;51.194;6.614;2022-07-10T06:55:14;18.50;99.90
5278;DHT22;2662;51.194;6.614;2022-07-10T06:57:41;18.60;99.90
5278;DHT22;2662;51.194;6.614;2022-07-10T07:00:09;18.60;99.90
5278;DHT22;2662;51.194;6.614;2022-07-10T07:02:38;18.60;99.90
5278;DHT22;2662;51.194;6.614;2022-07-10T07:05:06;18.40;99.90
5278;DHT22;2662;51.194;6.614;2022-07-10T07:07:33;18.30;99.90
5278;DHT22;2662;51.194;6.614;2022-07-10T07:10:00;18.30;99.90
5278;DHT22;2662;51.194;6.614;2022-07-10T07:12:27;18.50;99.90
5278;DHT22;2662;51.194;6.614;2022-07-10T07:14:54;18.70;99.90
5278;DHT22;2662;51.194;6.614;2022-07-10T07:17:21;18.80;99.90
5278;DHT22;2662;51.194;6.614;2022-07-10T07:19:51;18.80;99.90
5278;DHT22;2662;51.194;6.614;2022-07-10T07:22:36;18.90;99.90
5278;DHT22;2662;51.194;6.614;2022-07-10T07:25:21;19.00;99.90
5278;DHT22;2662;51.194;6.614;2022-07-10T07:27:48;19.00;99.90
5278;DHT22;2662;51.194;6.614;2022-07-10T07:30:15;19.00;99.90
5278;DHT22;2662;51.194;6.614;2022-07-10T07:32:43;19.10;99.90
5278;DHT22;2662;51.194;6.614;2022-07-10T07:35:13;19.20;99.90
5278;DHT22;2662;51.194;6.614;2022-07-10T07:37:41;19.20;99.90
5278;DHT22;2662;51.194;6.614;2022-07-10T07:40:10;19.10;99.90
5278;DHT22;2662;51.194;6.614;2022-07-10T07:42:37;19.10;99.90
5278;DHT22;2662;51.194;6.614;2022-07-10T07:45:05;18.90;99.90
5278;DHT22;2662;51.194;6.614;2022-07-10T07:47:45;18.90;99.90
5278;DHT22;2662;51.194;6.614;2022-07-10T07:50:15;18.80;99.90
5278;DHT22;2662;51.194;6.614;2022-07-10T07:52:42;18.70;99.90
5278;DHT22;2662;51.194;6.614;2022-07-10T07:55:10;18.80;99.90
5278;DHT22;2662;51.194;6.614;2022-07-10T07:57:37;18.70;99.90
5278;DHT22;2662;51.194;6.614;2022-07-10T08:00:05;18.70;99.90
5278;DHT22;2662;51.194;6.614;2022-07-10T08:02:32;18.70;99.90
5278;DHT22;2662;51.194;6.614;2022-07-10T08:04:59;18.90;99.90
5278;DHT22;2662;51.194;6.614;2022-07-10T08:07:34;19.10;99.90
5278;DHT22;2662;51.194;6.614;2022-07-10T08:10:01;19.60;99.90
5278;DHT22;2662;51.194;6.614;2022-07-10T08:12:28;19.80;99.90
5278;DHT22;2662;51.194;6.614;2022-07-10T08:14:55;19.90;99.90
5278;DHT22;2662;51.194;6.614;2022-07-10T08:17:22;20.10;99.90
5278;DHT22;2662;51.194;6.614;2022-07-10T08:19:49;19.90;99.90
5278;DHT22;2662;51.194;6.614;2022-07-10T08:22:16;20.10;99.90
5278;DHT22;2662;51.194;6.614;2022-07-10T08:24:44;20.10;99.90
5278;DHT22;2662;51.194;6.614;2022-07-10T08:27:11;20.00;99.90
5278;DHT22;2662;51.194;6.614;2022-07-10T08:29:37;19.80;99.90
5278;DHT22;2662;51.194;6.614;2022-07-10T08:32:05;19.70;99.90
5278;DHT22;2662;51.194;6.614;2022-07-10T08:34:32;19.70;99.90
5278;DHT22;2662;51.194;6.614;2022-07-10T08:36:59;19.60;99.90
5278;DHT22;2662;51.194;6.614;2022-07-10T08:39:26;19.70;99.90
5278;DHT22;2662;51.194;6.614;2022-07-10T08:41:54;19.60;99.90
5278;DHT22;2662;51.194;6.614;2022-07-10T08:44:21;19.60;99.90
5278;DHT22;2662;51.194;6.614;2022-07-10T08:46:48;19.40;99.90
5278;DHT22;2662;51.194;6.614;2022-07-10T08:49:16;19.30;99.90
5278;DHT22;2662;51.194;6.614;2022-07-10T08:51:48;19.40;99.90
5278;DHT22;2662;51.194;6.614;2022-07-10T08:54:20;19.60;99.90
5278;DHT22;2662;51.194;6.614;2022-07-10T08:56:47;20.00;99.90
5278;DHT22;2662;51.194;6.614;2022-07-10T08:59:17;20.40;99.90
5278;DHT22;2662;51.194;6.614;2022-07-10T09:01:44;20.60;99.90
5278;DHT22;2662;51.194;6.614;2022-07-10T09:04:16;20.70;99.90
5278;DHT22;2662;51.194;6.614;2022-07-10T09:06:44;20.40;99.90
5278;DHT22;2662;51.194;6.614;2022-07-10T09:09:11;20.20;99.90
5278;DHT22;2662;51.194;6.614;2022-07-10T09:11:39;19.80;99.90
5278;DHT22;2662;51.194;6.614;2022-07-10T09:14:08;19.70;99.90
5278;DHT22;2662;51.194;6.614;2022-07-10T09:16:39;19.60;99.90
5278;DHT22;2662;51.194;6.614;2022-07-10T09:19:17;19.60;99.90
5278;DHT22;2662;51.194;6.614;2022-07-10T09:21:45;19.40;99.90
5278;DHT22;2662;51.194;6.614;2022-07-10T09:24:12;19.50;99.90
5278;DHT22;2662;51.194;6.614;2022-07-10T09:26:40;19.50;99.90
5278;DHT22;2662;51.194;6.614;2022-07-10T09:29:09;19.70;99.90
5278;DHT22;2662;51.194;6.614;2022-07-10T09:31:50;19.80;99.90
5278;DHT22;2662;51.194;6.614;2022-07-10T09:34:18;20.00;99.90
5278;DHT22;2662;51.194;6.614;2022-07-10T09:36:45;19.70;99.90
5278;DHT22;2662;51.194;6.614;2022-07-10T09:39:11;19.70;99.90
5278;DHT22;2662;51.194;6.614;2022-07-10T09:41:38;19.40;99.90
5278;DHT22;2662;51.194;6.614;2022-07-10T09:44:05;19.50;99.90
5278;DHT22;2662;51.194;6.614;2022-07-10T09:46:35;19.20;99.90
5278;DHT22;2662;51.194;6.614;2022-07-10T09:49:08;19.50;99.90
5278;DHT22;2662;51.194;6.614;2022-07-10T09:51:37;19.90;99.90
5278;DHT22;2662;51.194;6.614;2022-07-10T09:54:05;20.40;99.90
5278;DHT22;2662;51.194;6.614;2022-07-10T09:56:42;20.60;99.90
5278;DHT22;2662;51.194;6.614;2022-07-10T09:59:11;21.10;99.90
5278;DHT22;2662;51.194;6.614;2022-07-10T10:01:43;21.30;99.90
5278;DHT22;2662;51.194;6.614;2022-07-10T10:04:12;21.10;99.90
5278;DHT22;2662;51.194;6.614;2022-07-10T10:06:40;21.20;99.90
5278;DHT22;2662;51.194;6.614;2022-07-10T10:09:11;21.80;99.90
5278;DHT22;2662;51.194;6.614;2022-07-10T10:11:41;22.10;99.90
5278;DHT22;2662;51.194;6.614;2022-07-10T10:14:10;22.60;99.90
5278;DHT22;2662;51.194;6.614;2022-07-10T10:16:39;22.60;99.90
5278;DHT22;2662;51.194;6.614;2022-07-10T10:19:11;22.80;99.90
5278;DHT22;2662;51.194;6.614;2022-07-10T10:21:58;23.10;99.90
5278;DHT22;2662;51.194;6.614;2022-07-10T10:24:25;23.10;99.90
5278;DHT22;2662;51.194;6.614;2022-07-10T10:26:52;22.70;99.90
5278;DHT22;2662;51.194;6.614;2022-07-10T10:29:20;22.50;99.90
5278;DHT22;2662;51.194;6.614;2022-07-10T10:31:47;22.10;99.90
5278;DHT22;2662;51.194;6.614;2022-07-10T10:34:39;21.50;99.90
5278;DHT22;2662;51.194;6.614;2022-07-10T10:37:33;21.50;99.90
5278;DHT22;2662;51.194;6.614;2022-07-10T10:40:03;21.40;99.90
5278;DHT22;2662;51.194;6.614;2022-07-10T10:42:35;21.50;99.90
5278;DHT22;2662;51.194;6.614;2022-07-10T10:45:24;21.80;99.90
5278;DHT22;2662;51.194;6.614;2022-07-10T10:48:00;21.70;99.90
5278;DHT22;2662;51.194;6.614;2022-07-10T10:50:38;21.60;99.90
5278;DHT22;2662;51.194;6.614;2022-07-10T10:53:12;21.40;99.90
5278;DHT22;2662;51.194;6.614;2022-07-10T10:55:40;21.10;99.90
5278;DHT22;2662;51.194;6.614;2022-07-10T10:58:15;20.80;99.90
5278;DHT22;2662;51.194;6.614;2022-07-10T11:00:43;20.40;99.90
5278;DHT22;2662;51.194;6.614;2022-07-10T11:03:18;20.60;99.90
5278;DHT22;2662;51.194;6.614;2022-07-10T11:05:48;20.80;99.90
5278;DHT22;2662;51.194;6.614;2022-07-10T11:08:35;21.20;99.90
5278;DHT22;2662;51.194;6.614;2022-07-10T11:11:36;21.90;99.90
5278;DHT22;2662;51.194;6.614;2022-07-10T11:14:06;23.00;99.90
5278;DHT22;2662;51.194;6.614;2022-07-10T11:16:33;22.90;99.90
5278;DHT22;2662;51.194;6.614;2022-07-10T11:19:01;22.60;99.90
5278;DHT22;2662;51.194;6.614;2022-07-10T11:21:45;22.10;99.90
5278;DHT22;2662;51.194;6.614;2022-07-10T11:24:25;21.60;99.90
5278;DHT22;2662;51.194;6.614;2022-07-10T11:27:06;21.00;99.90
5278;DHT22;2662;51.194;6.614;2022-07-10T11:29:36;20.60;99.90
5278;DHT22;2662;51.194;6.614;2022-07-10T11:32:05;20.20;99.90
5278;DHT22;2662;51.194;6.614;2022-07-10T11:34:36;20.20;99.90
5278;DHT22;2662;51.194;6.614;2022-07-10T11:37:13;20.40;99.90
5278;DHT22;2662;51.194;6.614;2022-07-10T11:39:40;21.00;99.90
5278;DHT22;2662;51.194;6.614;2022-07-10T11:42:07;21.50;99.90
5278;DHT22;2662;51.194;6.614;2022-07-10T11:44:34;21.70;99.90
5278;DHT22;2662;51.194;6.614;2022-07-10T11:47:03;21.90;99.90
5278;DHT22;2662;51.194;6.614;2022-07-10T11:49:30;21.70;99.90
5278;DHT22;2662;51.194;6.614;2022-07-10T11:55:16;21.60;99.90
5278;DHT22;2662;51.194;6.614;2022-07-10T11:57:43;21.70;99.90
5278;DHT22;2662;51.194;6.614;2022-07-10T12:00:21;21.40;99.90
5278;DHT22;2662;51.194;6.614;2022-07-10T12:02:49;21.30;99.90
5278;DHT22;2662;51.194;6.614;2022-07-10T12:05:30;21.30;99.90
5278;DHT22;2662;51.194;6.614;2022-07-10T12:07:57;21.50;99.90
5278;DHT22;2662;51.194;6.614;2022-07-10T12:10:27;21.40;99.90
5278;DHT22;2662;51.194;6.614;2022-07-10T12:13:02;21.40;99.90
5278;DHT22;2662;51.194;6.614;2022-07-10T12:15:33;21.30;99.90
5278;DHT22;2662;51.194;6.614;2022-07-10T12:18:00;21.20;99.90
5278;DHT22;2662;51.194;6.614;2022-07-10T12:20:27;21.00;99.90
5278;DHT22;2662;51.194;6.614;2022-07-10T12:22:54;21.00;99.90
5278;DHT22;2662;51.194;6.614;2022-07-10T12:25:21;21.10;99.90
5278;DHT22;2662;51.194;6.614;2022-07-10T12:27:49;21.30;99.90
5278;DHT22;2662;51.194;6.614;2022-07-10T12:30:21;21.70;99.90
5278;DHT22;2662;51.194;6.614;2022-07-10T12:32:47;22.00;99.90
5278;DHT22;2662;51.194;6.614;2022-07-10T12:35:14;22.20;99.90
5278;DHT22;2662;51.194;6.614;2022-07-10T12:37:47;22.50;99.90
5278;DHT22;2662;51.194;6.614;2022-07-10T12:40:30;22.70;99.90
5278;DHT22;2662;51.194;6.614;2022-07-10T12:43:05;22.60;99.90
5278;DHT22;2662;51.194;6.614;2022-07-10T12:45:33;22.40;99.90
5278;DHT22;2662;51.194;6.614;2022-07-10T12:47:59;21.90;99.90
5278;DHT22;2662;51.194;6.614;2022-07-10T12:50:29;21.50;99.90
5278;DHT22;2662;51.194;6.614;2022-07-10T12:53:09;21.30;99.90
5278;DHT22;2662;51.194;6.614;2022-07-10T12:55:37;21.30;99.90
5278;DHT22;2662;51.194;6.614;2022-07-10T12:58:09;21.40;99.90
5278;DHT22;2662;51.194;6.614;2022-07-10T13:00:44;21.50;99.90
5278;DHT22;2662;51.194;6.614;2022-07-10T13:03:17;21.80;99.90
5278;DHT22;2662;51.194;6.614;2022-07-10T13:05:45;22.30;99.90
5278;DHT22;2662;51.194;6.614;2022-07-10T13:08:13;22.50;99.90
5278;DHT22;2662;51.194;6.614;2022-07-10T13:10:42;22.90;99.90
5278;DHT22;2662;51.194;6.614;2022-07-10T13:13:11;23.50;99.90
5278;DHT22;2662;51.194;6.614;2022-07-10T13:15:38;23.90;99.90
5278;DHT22;2662;51.194;6.614;2022-07-10T13:18:12;24.40;99.90
5278;DHT22;2662;51.194;6.614;2022-07-10T13:20:39;24.60;99.90
5278;DHT22;2662;51.194;6.614;2022-07-10T13:23:06;24.60;99.90
5278;DHT22;2662;51.194;6.614;2022-07-10T13:25:33;24.50;99.90
5278;DHT22;2662;51.194;6.614;2022-07-10T13:28:00;24.40;99.90
5278;DHT22;2662;51.194;6.614;2022-07-10T13:30:29;24.60;99.90
5278;DHT22;2662;51.194;6.614;2022-07-10T13:32:55;24.70;99.90
5278;DHT22;2662;51.194;6.614;2022-07-10T13:35:22;24.60;99.90
5278;DHT22;2662;51.194;6.614;2022-07-10T13:37:49;24.60;99.90
5278;DHT22;2662;51.194;6.614;2022-07-10T13:40:16;24.90;99.90
5278;DHT22;2662;51.194;6.614;2022-07-10T13:42:43;25.00;99.90
5278;DHT22;2662;51.194;6.614;2022-07-10T13:45:10;25.20;99.90
5278;DHT22;2662;51.194;6.614;2022-07-10T13:47:38;25.00;99.90
5278;DHT22;2662;51.194;6.614;2022-07-10T13:50:06;24.90;99.90
5278;DHT22;2662;51.194;6.614;2022-07-10T13:52:33;24.90;99.90
5278;DHT22;2662;51.194;6.614;2022-07-10T13:54:59;24.90;99.90
5278;DHT22;2662;51.194;6.614;2022-07-10T13:57:26;24.70;99.90
5278;DHT22;2662;51.194;6.614;2022-07-10T13:59:54;24.60;99.90
5278;DHT22;2662;51.194;6.614;2022-07-10T14:02:21;24.50;99.90
5278;DHT22;2662;51.194;6.614;2022-07-10T14:04:49;24.60;99.90
5278;DHT22;2662;51.194;6.614;2022-07-10T14:07:16;24.70;99.90
5278;DHT22;2662;51.194;6.614;2022-07-10T14:09:42;24.60;99.90
5278;DHT22;2662;51.194;6.614;2022-07-10T14:12:09;24.80;99.90
5278;DHT22;2662;51.194;6.614;2022-07-10T14:14:37;24.60;99.90
5278;DHT22;2662;51.194;6.614;2022-07-10T14:17:04;24.20;99.90
5278;DHT22;2662;51.194;6.614;2022-07-10T14:19:30;24.10;99.90
5278;DHT22;2662;51.194;6.614;2022-07-10T14:21:58;24.10;99.90
5278;DHT22;2662;51.194;6.614;2022-07-10T14:24:25;24.00;99.90
5278;DHT22;2662;51.194;6.614;2022-07-10T14:26:52;24.00;99.90
5278;DHT22;2662;51.194;6.614;2022-07-10T14:29:19;24.40;99.90
5278;DHT22;2662;51.194;6.614;2022-07-10T14:31:46;24.40;99.90
5278;DHT22;2662;51.194;6.614;2022-07-10T14:34:14;24.20;99.90
5278;DHT22;2662;51.194;6.614;2022-07-10T14:36:41;24.10;99.90
5278;DHT22;2662;51.194;6.614;2022-07-10T14:39:09;24.10;99.90
5278;DHT22;2662;51.194;6.614;2022-07-10T14:41:37;24.10;99.90
5278;DHT22;2662;51.194;6.614;2022-07-10T14:44:04;24.00;99.90
5278;DHT22;2662;51.194;6.614;2022-07-10T14:46:31;23.90;99.90
5278;DHT22;2662;51.194;6.614;2022-07-10T14:48:58;23.90;99.90
5278;DHT22;2662;51.194;6.614;2022-07-10T14:51:25;24.00;99.90
5278;DHT22;2662;51.194;6.614;2022-07-10T14:53:52;24.00;99.90
5278;DHT22;2662;51.194;6.614;2022-07-10T14:56:21;24.00;99.90
5278;DHT22;2662;51.194;6.614;2022-07-10T14:58:48;23.70;99.90
5278;DHT22;2662;51.194;6.614;2022-07-10T15:01:15;23.70;99.90
5278;DHT22;2662;51.194;6.614;2022-07-10T15:03:42;23.60;99.90
5278;DHT22;2662;51.194;6.614;2022-07-10T15:06:09;23.70;99.90
5278;DHT22;2662;51.194;6.614;2022-07-10T15:08:36;23.90;99.90
5278;DHT22;2662;51.194;6.614;2022-07-10T15:11:03;23.90;99.90
5278;DHT22;2662;51.194;6.614;2022-07-10T15:13:33;23.80;99.90
5278;DHT22;2662;51.194;6.614;2022-07-10T15:16:00;23.70;99.90
5278;DHT22;2662;51.194;6.614;2022-07-10T15:18:27;23.70;99.90
5278;DHT22;2662;51.194;6.614;2022-07-10T15:20:54;23.60;99.90
5278;DHT22;2662;51.194;6.614;2022-07-10T15:23:22;23.80;99.90
5278;DHT22;2662;51.194;6.614;2022-07-10T15:25:49;23.90;99.90
5278;DHT22;2662;51.194;6.614;2022-07-10T15:28:15;23.90;99.90
5278;DHT22;2662;51.194;6.614;2022-07-10T15:30:43;23.90;99.90
5278;DHT22;2662;51.194;6.614;2022-07-10T15:33:10;23.90;99.90
5278;DHT22;2662;51.194;6.614;2022-07-10T15:35:37;23.90;99.90
5278;DHT22;2662;51.194;6.614;2022-07-10T15:38:04;23.80;99.90
5278;DHT22;2662;51.194;6.614;2022-07-10T15:40:31;23.80;99.90
5278;DHT22;2662;51.194;6.614;2022-07-10T15:42:58;23.70;99.90
5278;DHT22;2662;51.194;6.614;2022-07-10T15:45:25;23.70;99.90
5278;DHT22;2662;51.194;6.614;2022-07-10T15:47:54;24.00;99.90
5278;DHT22;2662;51.194;6.614;2022-07-10T15:50:21;24.10;99.90
5278;DHT22;2662;51.194;6.614;2022-07-10T15:52:48;24.30;99.90
5278;DHT22;2662;51.194;6.614;2022-07-10T15:55:14;24.20;99.90
5278;DHT22;2662;51.194;6.614;2022-07-10T15:57:41;24.30;99.90
5278;DHT22;2662;51.194;6.614;2022-07-10T16:00:09;24.40;99.90
5278;DHT22;2662;51.194;6.614;2022-07-10T16:02:36;24.50;99.90
5278;DHT22;2662;51.194;6.614;2022-07-10T16:05:05;24.60;99.90
5278;DHT22;2662;51.194;6.614;2022-07-10T16:07:32;24.40;99.90
5278;DHT22;2662;51.194;6.614;2022-07-10T16:09:59;24.50;99.90
5278;DHT22;2662;51.194;6.614;2022-07-10T16:12:26;24.40;99.90